Terminal Aerodrome Forecast
Issued by NWS

Home | Current Version | Previous Version | Text Only | Print | Product List | Glossary Off
Versions: 1 2 3 4 5 6 7 8 9 10 11 12 13 14 15 16 17 18 19 20 21

000
FTUS43 KGRB 271124
TAFMTW
TAF
KMTW 271124Z 2712/2812 27013G18KT P6SM OVC080
     FM271400 27016G22KT P6SM OVC035
      TEMPO 2715/2719 -SHRA BKN025
     FM271900 27015G22KT P6SM -SHRA OVC028
     FM272000 28015G21KT P6SM -SHRA OVC030
     FM272100 28010KT P6SM -SHRA OVC026
     FM280400 31005KT P6SM -SHRA OVC013=

USA.gov is the U.S. government's official web portal to all federal, state and local government web resources and services.